首页
METAR-TAF:

METAR-TAF

机场 :

吕伐登, 荷兰

纬度: 53-13N, 经度: 005-46E, 海拔: 1米

当前天气观测

该预报发布于27分钟前的06:55 UTC
风速21节,风向西南
温度 6°C
湿度 75%
气压 1005 hPa
能见度10公里或以上

METAR: EHLW 170655Z AUTO 22021KT 9999 NCD 06/02 Q1005 BLU

时间: 08:22 (07:22 UTC)

预报

该预报发布于2小时和3分钟前的05:19 UTC
预报有效从17日的 06点(UTC)到 17日的 18点(UTC)
风速25节,风向西南
能见度10公里或以上
1500米以下无云,无积雨云
短暂存在
从 17日的 06点(UTC)到 17日的 15点(UTC)
风速25节,风向西转西南,有时为35节阵风
短暂存在
从 17日的 09点(UTC)到 17日的 18点(UTC)
散云层高于2000英尺, 积雨云.
几率 30% :
短暂存在
从 17日的 10点(UTC)到 17日的 15点(UTC)
能見度: 4000
散云层高于1500英尺, 积雨云.
多云层高于2000英尺
阵雨, 小冰雹或雪球, 雷暴, 雨, 小冰雹或雪球

TAF: EHLW 170519Z 1706/1718 22025KT CAVOK TEMPO 1706/1715 24025G35KT TEMPO 1709/1718 SCT020CB PROB30 TEMPO 1710/1715 4000 SHRAGS TSRAGS SCT015CB BKN020

超过4000个机场的气象观测和天气预报(METAR&TAF报告)。

可查询的气象台以黄色和红色小点在地图上表示。

将鼠标移到小点上方,可查看气象台名称。

然后点击查看天气观测和预报。

如需切换地图:点击带黑十字的绿色按钮放大地图;点击带横线的绿色按钮缩小地图;或者点击绿色箭头查看邻近地区的地图。


METAR-TAF: